Time;durP1;ratioP1;P1;durP2;ratioP2;P2;SDS_P1;SDS_P2;PMS_P1;PMS_P2;Temp;Humidity;BMP_temperature;BMP_pressure;BME280_temperature;BME280_humidity;BME280_pressure;Samples;Min_cycle;Max_cycle;Signal;HPM_P1;HPM_P2
2023/06/17 00:03:16;;;;;;;6.53;4.55;;;;;17.10;101147.00;;;;10209349;28;20704;-83
2023/06/17 00:08:20;;;;;;;7.53;4.57;;;;;17.00;101151.00;;;;10229881;28;20262;-74
2023/06/17 00:13:22;;;;;;;8.00;4.53;;;;;16.90;101141.00;;;;10246022;28;20210;-75
2023/06/17 00:18:25;;;;;;;4.80;4.33;;;;;16.80;101141.00;;;;10238800;28;20735;-76
2023/06/17 00:23:27;;;;;;;9.47;5.23;;;;;16.70;101135.00;;;;10248837;28;20284;-74
2023/06/17 00:28:29;;;;;;;5.63;4.25;;;;;16.50;101126.00;;;;10240560;28;20236;-74
2023/06/17 00:33:32;;;;;;;9.25;5.15;;;;;16.40;101125.00;;;;10238716;28;20648;-75
2023/06/17 00:38:35;;;;;;;6.10;5.17;;;;;16.40;101121.00;;;;10241974;28;20213;-73
2023/06/17 00:43:37;;;;;;;7.57;4.87;;;;;16.30;101122.00;;;;10248889;28;20232;-73
2023/06/17 00:48:39;;;;;;;7.13;5.07;;;;;16.30;101116.00;;;;10252666;28;20299;-77
2023/06/17 00:53:41;;;;;;;6.97;4.97;;;;;16.10;101119.00;;;;10239797;28;20787;-77
2023/06/17 00:58:45;;;;;;;6.27;5.13;;;;;16.00;101119.00;;;;10254068;28;20301;-73
2023/06/17 01:03:49;;;;;;;5.10;4.60;;;;;15.90;101112.00;;;;10246211;28;20234;-82
2023/06/17 01:08:58;;;;;;;6.70;4.87;;;;;15.90;101115.00;;;;10255329;28;20198;-81
2023/06/17 01:14:01;;;;;;;5.40;4.87;;;;;15.80;101108.00;;;;10242844;28;20214;-74
2023/06/17 01:19:05;;;;;;;6.00;5.07;;;;;15.70;101101.00;;;;10251889;28;20201;-77
2023/06/17 01:24:09;;;;;;;5.93;5.20;;;;;15.60;101118.00;;;;10251994;28;20220;-77
2023/06/17 01:29:11;;;;;;;6.30;5.20;;;;;15.40;101121.00;;;;10252210;28;20201;-74
2023/06/17 01:34:13;;;;;;;7.67;5.70;;;;;15.40;101120.00;;;;10250693;28;20606;-73
2023/06/17 01:39:19;;;;;;;5.73;4.93;;;;;15.30;101114.00;;;;10251146;28;20212;-77
2023/06/17 01:44:24;;;;;;;6.17;5.10;;;;;15.30;101110.00;;;;10234821;28;20874;-74
2023/06/17 01:49:27;;;;;;;6.97;5.10;;;;;15.30;101114.00;;;;10251096;28;20545;-75
2023/06/17 01:54:30;;;;;;;5.90;5.30;;;;;15.30;101110.00;;;;10251482;28;20217;-82
2023/06/17 01:59:32;;;;;;;8.23;6.10;;;;;15.10;101108.00;;;;10250970;28;20845;-73
2023/06/17 02:04:34;;;;;;;8.33;5.90;;;;;15.00;101094.00;;;;10239959;28;20865;-75
2023/06/17 02:09:37;;;;;;;10.40;6.03;;;;;15.00;101100.00;;;;10250592;28;20204;-78
2023/06/17 02:14:42;;;;;;;9.87;5.40;;;;;15.00;101093.00;;;;10239132;28;20210;-78
2023/06/17 02:19:44;;;;;;;6.33;5.27;;;;;15.00;101085.00;;;;10247509;28;20917;-78
2023/06/17 02:24:46;;;;;;;6.70;5.33;;;;;14.80;101083.00;;;;10240401;28;20244;-77
2023/06/17 02:29:48;;;;;;;7.13;4.70;;;;;14.70;101074.00;;;;10250149;28;20371;-78
2023/06/17 02:34:51;;;;;;;10.80;5.53;;;;;14.60;101071.00;;;;10251881;28;20633;-77
2023/06/17 02:39:53;;;;;;;8.00;6.63;;;;;14.50;101061.00;;;;10245060;28;20202;-75
2023/06/17 02:44:55;;;;;;;7.60;6.40;;;;;14.40;101053.00;;;;10236847;28;20225;-81
2023/06/17 02:49:57;;;;;;;6.60;5.83;;;;;14.30;101056.00;;;;10247969;28;20297;-74
2023/06/17 02:55:01;;;;;;;7.13;5.93;;;;;14.30;101051.00;;;;10235874;28;20300;-74
2023/06/17 03:00:06;;;;;;;9.13;5.90;;;;;14.20;101031.00;;;;10250868;28;20293;-77
2023/06/17 03:05:09;;;;;;;9.27;6.33;;;;;14.10;101038.00;;;;10179294;28;20229;-81
2023/06/17 03:10:14;;;;;;;10.97;7.00;;;;;14.10;101034.00;;;;10216750;28;20205;-78
2023/06/17 03:15:20;;;;;;;7.17;6.47;;;;;14.10;101039.00;;;;10234297;28;20241;-77
2023/06/17 03:20:28;;;;;;;13.17;7.53;;;;;14.20;101038.00;;;;10222067;28;20197;-78
2023/06/17 03:25:31;;;;;;;8.00;6.57;;;;;14.30;101038.00;;;;10243647;28;20571;-78
2023/06/17 03:30:33;;;;;;;10.73;6.73;;;;;14.30;101041.00;;;;10240733;28;20270;-73
2023/06/17 03:35:36;;;;;;;9.70;6.27;;;;;14.40;101042.00;;;;10228564;28;20285;-73
2023/06/17 03:40:39;;;;;;;7.50;6.53;;;;;14.30;101050.00;;;;10223232;28;20210;-74
2023/06/17 03:45:42;;;;;;;7.63;6.67;;;;;14.20;101052.00;;;;10255805;28;20750;-72
2023/06/17 03:50:44;;;;;;;9.13;6.43;;;;;14.20;101053.00;;;;10234755;28;20217;-73
2023/06/17 03:55:47;;;;;;;8.33;6.70;;;;;14.30;101056.00;;;;10243474;28;20280;-73
2023/06/17 04:00:49;;;;;;;6.73;5.73;;;;;14.50;101054.00;;;;10237003;28;20201;-73
2023/06/17 04:05:52;;;;;;;8.73;5.73;;;;;14.80;101055.00;;;;10247551;28;20225;-74
2023/06/17 04:10:54;;;;;;;7.57;5.87;;;;;15.00;101067.00;;;;10233475;28;20284;-73
2023/06/17 04:15:56;;;;;;;7.20;6.20;;;;;15.20;101061.00;;;;10214689;28;20300;-73
2023/06/17 04:20:59;;;;;;;10.00;6.30;;;;;15.30;101063.00;;;;10244366;28;20217;-73
2023/06/17 04:26:04;;;;;;;7.57;6.20;;;;;15.50;101070.00;;;;10228241;28;20307;-73
2023/06/17 04:31:10;;;;;;;6.63;5.20;;;;;15.70;101066.00;;;;10240868;28;20209;-72
2023/06/17 04:36:14;;;;;;;9.30;6.07;;;;;15.90;101062.00;;;;10245830;28;20303;-75
2023/06/17 04:41:16;;;;;;;10.97;5.70;;;;;16.20;101068.00;;;;10217996;28;20201;-73
2023/06/17 04:46:21;;;;;;;8.00;5.93;;;;;16.50;101076.00;;;;10218057;28;20687;-74
2023/06/17 04:51:24;;;;;;;10.40;6.27;;;;;16.80;101074.00;;;;10242755;28;20224;-73
2023/06/17 04:56:26;;;;;;;9.97;6.47;;;;;17.10;101074.00;;;;10240890;28;20228;-72
2023/06/17 05:01:29;;;;;;;8.10;6.10;;;;;17.50;101064.00;;;;10243789;28;20406;-74
2023/06/17 05:06:31;;;;;;;13.23;7.07;;;;;17.80;101061.00;;;;10245318;28;20221;-73
2023/06/17 05:11:35;;;;;;;10.98;7.95;;;;;18.10;101069.00;;;;10244942;28;20204;-74
2023/06/17 05:16:38;;;;;;;11.53;6.80;;;;;18.50;101063.00;;;;10223942;28;20205;-73
2023/06/17 05:21:40;;;;;;;9.15;7.30;;;;;18.90;101063.00;;;;10227167;28;20217;-73
2023/06/17 05:26:42;;;;;;;10.77;7.55;;;;;19.10;101062.00;;;;10224470;28;20256;-73
2023/06/17 05:31:44;;;;;;;11.10;7.07;;;;;19.20;101072.00;;;;10244551;28;20832;-73
2023/06/17 05:36:46;;;;;;;11.40;6.75;;;;;19.50;101081.00;;;;10236484;28;20920;-73
2023/06/17 05:41:49;;;;;;;11.20;6.70;;;;;20.10;101085.00;;;;10249930;28;20955;-73
2023/06/17 05:46:53;;;;;;;8.75;7.30;;;;;20.90;101074.00;;;;10234815;28;20253;-74
2023/06/17 05:51:55;;;;;;;12.68;7.93;;;;;21.40;101075.00;;;;10239254;28;20244;-73
2023/06/17 05:56:57;;;;;;;8.27;7.10;;;;;21.70;101081.00;;;;10207428;28;20214;-73
2023/06/17 06:02:01;;;;;;;8.30;6.10;;;;;22.00;101089.00;;;;10216003;28;20585;-75
2023/06/17 06:07:03;;;;;;;9.20;7.00;;;;;22.50;101079.00;;;;10248821;28;20229;-75
2023/06/17 06:12:06;;;;;;;9.02;6.18;;;;;22.30;101079.00;;;;10253013;28;20202;-74
2023/06/17 06:17:08;;;;;;;10.00;6.55;;;;;22.30;101082.00;;;;10230100;29;20243;-74
2023/06/17 06:22:10;;;;;;;8.02;6.90;;;;;22.20;101071.00;;;;10219871;28;20548;-77
2023/06/17 06:27:12;;;;;;;7.07;6.38;;;;;22.70;101084.00;;;;10252223;28;20300;-76
2023/06/17 06:32:15;;;;;;;8.07;6.65;;;;;23.00;101073.00;;;;10226032;28;20202;-78
2023/06/17 06:37:17;;;;;;;9.15;6.38;;;;;23.20;101063.00;;;;10238281;28;20296;-77
2023/06/17 06:42:20;;;;;;;10.85;6.78;;;;;23.50;101072.00;;;;10247180;28;20869;-77
2023/06/17 06:47:35;;;;;;;9.45;6.63;;;;;24.00;101071.00;;;;10251284;28;20316;-78
2023/06/17 06:52:38;;;;;;;9.50;6.65;;;;;24.40;101062.00;;;;10250072;28;20202;-77
2023/06/17 06:57:41;;;;;;;8.32;6.78;;;;;24.60;101066.00;;;;10220354;28;20960;-77
2023/06/17 07:02:44;;;;;;;7.88;6.10;;;;;25.00;101068.00;;;;10198272;28;20228;-78
2023/06/17 07:07:46;;;;;;;10.32;6.53;;;;;25.30;101073.00;;;;10248183;28;20300;-78
2023/06/17 07:12:49;;;;;;;14.13;5.57;;;;;25.80;101076.00;;;;10229620;28;20198;-78
2023/06/17 07:17:54;;;;;;;9.38;6.55;;;;;26.10;101074.00;;;;10245037;28;20201;-84
2023/06/17 07:22:57;;;;;;;9.90;7.13;;;;;26.30;101074.00;;;;10238192;28;20206;-75
2023/06/17 07:28:02;;;;;;;9.32;6.90;;;;;26.60;101076.00;;;;10225408;28;20314;-74
2023/06/17 07:33:05;;;;;;;7.85;6.97;;;;;27.30;101078.00;;;;10219598;28;20202;-75
2023/06/17 07:38:08;;;;;;;8.15;7.30;;;;;27.60;101078.00;;;;10233360;28;20740;-75
2023/06/17 07:43:11;;;;;;;9.63;6.78;;;;;27.80;101075.00;;;;10228243;28;20816;-75
2023/06/17 07:48:13;;;;;;;10.27;6.38;;;;;27.90;101085.00;;;;10227362;28;20237;-76
2023/06/17 07:53:15;;;;;;;7.63;6.85;;;;;28.00;101088.00;;;;10242926;28;20202;-83
2023/06/17 07:58:18;;;;;;;7.07;6.25;;;;;28.30;101079.00;;;;10221305;28;20201;-76
2023/06/17 08:03:20;;;;;;;8.02;6.30;;;;;28.50;101084.00;;;;10239189;28;20245;-78
2023/06/17 08:08:23;;;;;;;11.77;6.57;;;;;28.60;101086.00;;;;10230031;28;20221;-78
2023/06/17 08:13:25;;;;;;;8.30;6.13;;;;;29.20;101086.00;;;;10236528;28;20568;-77
2023/06/17 08:18:27;;;;;;;10.85;7.13;;;;;29.30;101075.00;;;;10242378;28;20692;-75
2023/06/17 08:23:29;;;;;;;10.80;6.20;;;;;29.70;101076.00;;;;10232928;28;20228;-74
2023/06/17 08:28:34;;;;;;;11.90;6.50;;;;;30.20;101072.00;;;;10239324;28;20217;-74
2023/06/17 08:33:43;;;;;;;12.80;6.32;;;;;30.70;101076.00;;;;10196684;28;20240;-75
2023/06/17 08:38:45;;;;;;;10.10;5.85;;;;;31.20;101071.00;;;;10223562;28;20197;-76
2023/06/17 08:43:51;;;;;;;10.13;6.20;;;;;31.60;101056.00;;;;10225106;28;20347;-75
2023/06/17 08:48:54;;;;;;;8.10;5.20;;;;;31.70;101066.00;;;;10233770;28;20224;-74
2023/06/17 08:53:57;;;;;;;6.70;5.25;;;;;32.00;101066.00;;;;10226033;28;20676;-77
2023/06/17 08:58:59;;;;;;;11.43;4.97;;;;;32.20;101059.00;;;;10214102;28;20292;-77
2023/06/17 09:04:01;;;;;;;9.95;5.97;;;;;32.60;101055.00;;;;10238342;28;20221;-77
2023/06/17 09:09:05;;;;;;;5.90;4.60;;;;;32.60;101066.00;;;;10236135;28;20226;-77
2023/06/17 09:14:07;;;;;;;7.65;5.28;;;;;32.80;101055.00;;;;10254148;28;20212;-77
2023/06/17 09:19:09;;;;;;;6.38;4.90;;;;;33.20;101055.00;;;;10250439;28;20206;-75
2023/06/17 09:24:11;;;;;;;6.55;4.82;;;;;33.50;101060.00;;;;10245942;28;20213;-74
2023/06/17 09:29:14;;;;;;;6.75;4.55;;;;;34.00;101059.00;;;;10248222;28;20554;-78
2023/06/17 09:34:16;;;;;;;6.38;5.00;;;;;34.50;101060.00;;;;10245746;28;20252;-75
2023/06/17 09:39:18;;;;;;;6.03;4.28;;;;;35.00;101058.00;;;;10259752;28;20251;-85
2023/06/17 09:44:22;;;;;;;5.35;4.40;;;;;35.30;101060.00;;;;10263507;28;20208;-86
2023/06/17 09:49:25;;;;;;;6.78;4.35;;;;;35.00;101058.00;;;;10266825;28;20213;-87
2023/06/17 09:54:27;;;;;;;5.50;4.68;;;;;34.20;101052.00;;;;10258339;28;20253;-76
2023/06/17 09:59:30;;;;;;;4.97;4.47;;;;;34.40;101056.00;;;;10245418;28;20229;-75
2023/06/17 10:04:32;;;;;;;6.38;4.80;;;;;34.20;101043.00;;;;10243314;28;20624;-74
2023/06/17 10:09:37;;;;;;;6.00;4.50;;;;;34.90;101043.00;;;;10246240;28;20229;-75
2023/06/17 10:14:40;;;;;;;9.52;4.25;;;;;35.70;101048.00;;;;10250148;28;20288;-75
2023/06/17 10:19:43;;;;;;;10.00;4.35;;;;;36.20;101039.00;;;;10250433;28;20213;-75
2023/06/17 10:24:50;;;;;;;8.15;4.50;;;;;36.50;101037.00;;;;10252671;28;20698;-75
2023/06/17 10:29:57;;;;;;;4.95;4.43;;;;;36.70;101034.00;;;;10244026;28;20210;-77
2023/06/17 10:35:06;;;;;;;8.55;4.35;;;;;36.20;101031.00;;;;10225623;28;20223;-78
2023/06/17 10:40:22;;;;;;;10.30;4.18;;;;;36.50;101021.00;;;;10245247;28;20205;-75
2023/06/17 10:45:46;;;;;;;9.10;4.45;;;;;36.20;101022.00;;;;10235362;28;20703;-76
2023/06/17 10:50:56;;;;;;;7.55;4.28;;;;;36.50;101011.00;;;;10242969;28;20197;-78
2023/06/17 10:55:59;;;;;;;5.35;4.07;;;;;36.70;101002.00;;;;10246699;28;20221;-77
2023/06/17 11:01:04;;;;;;;7.20;3.97;;;;;37.30;100995.00;;;;10246696;28;20226;-77
2023/06/17 11:06:09;;;;;;;6.53;3.92;;;;;37.70;100997.00;;;;10237545;28;21087;-77
2023/06/17 11:11:13;;;;;;;9.63;3.60;;;;;37.40;100997.00;;;;10240427;28;20226;-84
2023/06/17 11:16:15;;;;;;;6.72;3.78;;;;;37.30;100988.00;;;;10233729;28;20202;-78
2023/06/17 11:21:17;;;;;;;4.80;3.72;;;;;37.70;100992.00;;;;10241981;28;20332;-81
2023/06/17 11:26:19;;;;;;;8.30;4.00;;;;;38.00;100986.00;;;;10243500;28;20210;-82
2023/06/17 11:31:25;;;;;;;4.13;3.50;;;;;38.60;100985.00;;;;10231326;28;20190;-76
2023/06/17 11:36:28;;;;;;;6.95;4.40;;;;;38.50;100967.00;;;;10232842;28;20684;-75
2023/06/17 11:41:31;;;;;;;6.78;3.85;;;;;38.50;100954.00;;;;10240545;28;20209;-76
2023/06/17 11:46:37;;;;;;;4.28;3.53;;;;;38.80;100949.00;;;;10249904;28;20205;-75
2023/06/17 11:51:47;;;;;;;3.80;3.50;;;;;38.70;100939.00;;;;10244193;28;20260;-76
2023/06/17 11:56:49;;;;;;;8.65;3.83;;;;;38.90;100942.00;;;;10253124;28;20216;-75
2023/06/17 12:01:53;;;;;;;4.80;3.50;;;;;38.80;100929.00;;;;10235902;28;20248;-80
2023/06/17 12:06:56;;;;;;;4.13;3.75;;;;;38.20;100932.00;;;;10243152;28;20208;-78
2023/06/17 12:11:59;;;;;;;3.70;3.25;;;;;37.70;100934.00;;;;10229426;28;20216;-77
2023/06/17 12:17:02;;;;;;;7.50;4.10;;;;;37.40;100940.00;;;;10228240;28;20643;-79
2023/06/17 12:22:11;;;;;;;3.97;3.47;;;;;38.10;100935.00;;;;10246928;28;20209;-81
2023/06/17 12:27:13;;;;;;;5.20;3.80;;;;;38.80;100921.00;;;;10242195;28;20205;-81
2023/06/17 12:32:15;;;;;;;4.25;3.80;;;;;38.60;100924.00;;;;10231822;28;20296;-81
2023/06/17 12:37:21;;;;;;;8.43;4.50;;;;;37.70;100924.00;;;;10235441;28;20544;-81
2023/06/17 12:42:24;;;;;;;5.88;3.78;;;;;36.80;100919.00;;;;10247708;28;20201;-76
2023/06/17 12:47:26;;;;;;;5.20;3.78;;;;;35.80;100920.00;;;;10245577;28;20255;-77
2023/06/17 12:52:28;;;;;;;4.55;3.58;;;;;34.50;100915.00;;;;10254614;28;20204;-84
2023/06/17 12:57:30;;;;;;;7.30;4.22;;;;;34.30;100905.00;;;;10669764;23;20237;-74
2023/06/17 13:02:35;;;;;;;5.20;4.00;;;;;34.40;100907.00;;;;10248911;28;20301;-74
2023/06/17 13:07:37;;;;;;;5.72;3.90;;;;;34.20;100914.00;;;;10234719;28;20240;-74
2023/06/17 13:12:40;;;;;;;4.75;4.28;;;;;34.00;100911.00;;;;10211234;29;20647;-79
2023/06/17 13:17:42;;;;;;;5.35;4.50;;;;;34.30;100901.00;;;;10238241;28;20265;-80
2023/06/17 13:22:45;;;;;;;6.15;4.28;;;;;34.80;100901.00;;;;10249511;28;20260;-74
2023/06/17 13:27:47;;;;;;;7.43;4.68;;;;;34.80;100897.00;;;;10250315;28;20660;-79
2023/06/17 13:32:49;;;;;;;4.57;4.15;;;;;34.10;100892.00;;;;10251629;28;20292;-80
2023/06/17 13:37:52;;;;;;;5.35;4.57;;;;;33.60;100892.00;;;;10233839;28;20218;-73
2023/06/17 13:42:54;;;;;;;5.25;4.00;;;;;33.30;100884.00;;;;10217313;29;20229;-76
2023/06/17 13:47:57;;;;;;;5.22;4.18;;;;;33.10;100885.00;;;;10244683;28;20200;-77
2023/06/17 13:52:59;;;;;;;4.85;4.18;;;;;32.90;100879.00;;;;10226129;28;20210;-77
2023/06/17 13:58:01;;;;;;;5.30;4.18;;;;;32.70;100887.00;;;;10221380;28;20252;-78
2023/06/17 14:03:03;;;;;;;6.90;4.10;;;;;32.70;100888.00;;;;10205578;29;20210;-76
2023/06/17 14:08:06;;;;;;;5.40;4.03;;;;;32.30;100891.00;;;;10220162;28;20296;-77
2023/06/17 14:13:08;;;;;;;5.50;4.57;;;;;31.90;100884.00;;;;10227338;28;20940;-74
2023/06/17 14:18:11;;;;;;;6.03;3.92;;;;;31.60;100886.00;;;;10242284;28;20213;-76
2023/06/17 14:23:14;;;;;;;5.07;4.10;;;;;31.50;100878.00;;;;10223190;28;20202;-77
2023/06/17 14:28:18;;;;;;;4.65;4.25;;;;;31.50;100876.00;;;;10210015;28;20289;-77
2023/06/17 14:33:20;;;;;;;4.60;4.10;;;;;32.10;100872.00;;;;10222462;28;20209;-76
2023/06/17 14:38:22;;;;;;;5.45;4.13;;;;;32.40;100871.00;;;;10240089;28;20440;-77
2023/06/17 14:43:24;;;;;;;6.13;4.30;;;;;32.30;100872.00;;;;10225853;28;20212;-77
2023/06/17 14:48:26;;;;;;;7.88;3.92;;;;;32.30;100859.00;;;;10242736;28;20209;-77
2023/06/17 14:53:33;;;;;;;4.05;3.60;;;;;32.50;100866.00;;;;10238111;28;20253;-78
2023/06/17 14:58:35;;;;;;;4.57;3.80;;;;;32.50;100860.00;;;;10232215;28;20632;-75
2023/06/17 15:03:38;;;;;;;5.43;4.13;;;;;32.30;100864.00;;;;10238530;28;20225;-74
2023/06/17 15:08:40;;;;;;;6.03;4.22;;;;;32.30;100860.00;;;;10243685;28;20252;-77
2023/06/17 15:13:42;;;;;;;5.35;4.47;;;;;32.10;100856.00;;;;10246519;28;20592;-78
2023/06/17 15:18:45;;;;;;;7.45;4.55;;;;;31.60;100850.00;;;;10244232;28;20229;-78
2023/06/17 15:23:47;;;;;;;7.03;3.85;;;;;31.20;100848.00;;;;10223968;28;20200;-74
2023/06/17 15:28:49;;;;;;;6.38;3.83;;;;;31.40;100833.00;;;;10208268;29;20201;-75
2023/06/17 15:33:51;;;;;;;4.88;4.43;;;;;31.80;100839.00;;;;10222503;29;20210;-76
2023/06/17 15:39:00;;;;;;;4.90;3.88;;;;;32.10;100837.00;;;;10244738;28;20225;-80
2023/06/17 15:44:02;;;;;;;5.80;4.63;;;;;32.30;100837.00;;;;10229226;28;20210;-80
2023/06/17 15:49:07;;;;;;;5.28;4.25;;;;;32.20;100836.00;;;;10245841;28;20208;-78
2023/06/17 15:54:10;;;;;;;6.03;3.83;;;;;32.50;100839.00;;;;10236444;28;20845;-77
2023/06/17 15:59:12;;;;;;;7.72;4.30;;;;;32.50;100844.00;;;;10243060;28;20222;-77
2023/06/17 16:04:36;;;;;;;6.28;4.32;;;;;32.20;100832.00;;;;10235711;28;20221;-77
2023/06/17 16:09:47;;;;;;;5.05;4.03;;;;;32.10;100821.00;;;;10216242;29;20609;-77
2023/06/17 16:14:49;;;;;;;8.23;4.07;;;;;32.20;100824.00;;;;10216135;28;20627;-80
2023/06/17 16:19:52;;;;;;;4.32;3.92;;;;;32.20;100818.00;;;;10236051;28;20657;-76
2023/06/17 16:24:54;;;;;;;5.93;4.10;;;;;31.80;100824.00;;;;10210965;28;20198;-76
2023/06/17 16:29:56;;;;;;;9.48;4.53;;;;;31.30;100816.00;;;;10236755;28;20683;-82
2023/06/17 16:34:58;;;;;;;4.60;4.20;;;;;31.00;100812.00;;;;10234063;28;20262;-76
2023/06/17 16:40:00;;;;;;;7.75;4.35;;;;;30.80;100812.00;;;;10240080;28;20228;-79
2023/06/17 16:45:05;;;;;;;5.05;4.55;;;;;30.50;100805.00;;;;10224455;28;20209;-79
2023/06/17 16:50:07;;;;;;;7.30;4.78;;;;;30.30;100810.00;;;;10246144;28;20209;-79
2023/06/17 16:55:09;;;;;;;6.03;4.55;;;;;30.00;100808.00;;;;10283389;28;20224;-83
2023/06/17 17:00:12;;;;;;;6.80;3.75;;;;;29.70;100797.00;;;;10232499;28;20214;-75
2023/06/17 17:05:14;;;;;;;7.22;5.20;;;;;29.60;100804.00;;;;10284368;28;20352;-85
2023/06/17 17:10:22;;;;;;;8.85;7.95;;;;;29.40;100801.00;;;;10210233;28;20747;-77
2023/06/17 17:15:25;;;;;;;8.40;7.53;;;;;29.20;100800.00;;;;10230537;28;20210;-77
2023/06/17 17:20:27;;;;;;;8.00;5.25;;;;;29.00;100796.00;;;;10243720;28;20248;-77
2023/06/17 17:25:29;;;;;;;7.80;5.25;;;;;28.80;100801.00;;;;10246206;28;20244;-79
2023/06/17 17:30:31;;;;;;;9.38;4.78;;;;;28.60;100807.00;;;;10227850;28;20210;-79
2023/06/17 17:35:35;;;;;;;10.65;4.45;;;;;28.30;100829.00;;;;10238930;28;20608;-80
2023/06/17 17:40:38;;;;;;;7.43;4.07;;;;;27.90;100825.00;;;;10250404;28;20222;-76
2023/06/17 17:45:40;;;;;;;7.45;5.10;;;;;27.70;100823.00;;;;10242325;28;20553;-76
2023/06/17 17:50:42;;;;;;;6.95;4.10;;;;;27.40;100824.00;;;;10247725;28;20198;-75
2023/06/17 17:55:44;;;;;;;9.50;4.15;;;;;27.20;100822.00;;;;10246376;28;20201;-76
2023/06/17 18:00:46;;;;;;;4.97;4.40;;;;;27.30;100822.00;;;;10225841;28;20691;-76
2023/06/17 18:05:48;;;;;;;4.93;4.20;;;;;27.30;100822.00;;;;10245824;28;20659;-76
2023/06/17 18:10:51;;;;;;;6.13;4.50;;;;;27.20;100826.00;;;;10241804;28;20798;-75
2023/06/17 18:15:53;;;;;;;6.20;4.65;;;;;27.00;100817.00;;;;10247491;28;20228;-77
2023/06/17 18:20:55;;;;;;;9.95;5.28;;;;;27.00;100804.00;;;;10247329;28;20240;-75
2023/06/17 18:25:57;;;;;;;6.50;4.97;;;;;26.90;100816.00;;;;10246768;28;20205;-75
2023/06/17 18:30:59;;;;;;;5.40;4.50;;;;;26.80;100810.00;;;;10247043;28;20601;-80
2023/06/17 18:36:02;;;;;;;12.68;5.70;;;;;26.80;100812.00;;;;10250124;28;20232;-84
2023/06/17 18:41:04;;;;;;;11.30;4.93;;;;;26.70;100803.00;;;;10262942;28;20222;-76
2023/06/17 18:46:06;;;;;;;6.35;5.28;;;;;26.50;100804.00;;;;10208762;28;20219;-75
2023/06/17 18:51:09;;;;;;;5.90;4.90;;;;;26.30;100807.00;;;;10209608;29;20283;-76
2023/06/17 18:56:11;;;;;;;7.40;4.82;;;;;26.10;100805.00;;;;10240539;28;20217;-84
2023/06/17 19:01:13;;;;;;;8.55;5.35;;;;;25.90;100803.00;;;;10263671;28;20219;-80
2023/06/17 19:06:16;;;;;;;6.82;4.63;;;;;25.70;100804.00;;;;10238738;28;20491;-79
2023/06/17 19:11:19;;;;;;;5.70;5.10;;;;;25.60;100802.00;;;;10235235;28;20205;-79
2023/06/17 19:16:21;;;;;;;6.28;4.88;;;;;25.50;100810.00;;;;10286101;28;20288;-76
2023/06/17 19:21:24;;;;;;;6.97;5.28;;;;;25.30;100805.00;;;;10219033;28;20299;-75
2023/06/17 19:26:26;;;;;;;12.15;4.65;;;;;25.10;100805.00;;;;10240844;28;20201;-77
2023/06/17 19:31:28;;;;;;;8.73;4.97;;;;;24.90;100805.00;;;;10232856;28;20209;-77
2023/06/17 19:36:30;;;;;;;5.53;4.95;;;;;24.70;100806.00;;;;10206584;28;20218;-77
2023/06/17 19:41:32;;;;;;;6.40;4.85;;;;;24.50;100806.00;;;;10245106;28;20244;-78
2023/06/17 19:46:35;;;;;;;7.43;5.03;;;;;24.20;100803.00;;;;10238098;28;20210;-77
2023/06/17 19:51:37;;;;;;;8.48;4.68;;;;;24.00;100810.00;;;;10240799;28;20240;-76
2023/06/17 19:56:39;;;;;;;8.32;5.95;;;;;23.80;100807.00;;;;10243703;28;20297;-80
2023/06/17 20:01:41;;;;;;;9.52;5.47;;;;;23.60;100808.00;;;;10210142;29;20198;-77
2023/06/17 20:06:43;;;;;;;7.93;5.00;;;;;23.40;100805.00;;;;10227069;28;20212;-77
2023/06/17 20:11:45;;;;;;;11.80;5.30;;;;;23.30;100810.00;;;;10244181;28;20229;-78
2023/06/17 20:16:48;;;;;;;9.52;5.43;;;;;23.10;100806.00;;;;10256427;28;20264;-86
2023/06/17 20:21:51;;;;;;;10.45;5.40;;;;;22.90;100807.00;;;;10245438;28;20210;-75
2023/06/17 20:26:53;;;;;;;7.10;5.20;;;;;22.70;100801.00;;;;10236655;28;20284;-75
2023/06/17 20:31:56;;;;;;;10.27;5.78;;;;;22.50;100810.00;;;;10238786;28;20745;-77
2023/06/17 20:36:58;;;;;;;17.55;6.20;;;;;22.30;100798.00;;;;10219059;28;20253;-79
2023/06/17 20:42:00;;;;;;;7.57;5.97;;;;;22.20;100803.00;;;;10241175;28;20285;-77
2023/06/17 20:47:02;;;;;;;12.98;5.78;;;;;22.20;100807.00;;;;10238003;28;20247;-76
2023/06/17 20:52:05;;;;;;;8.73;5.95;;;;;22.10;100804.00;;;;10242558;28;20205;-76
2023/06/17 20:57:07;;;;;;;9.27;5.70;;;;;22.10;100804.00;;;;10242545;28;20220;-77
2023/06/17 21:02:09;;;;;;;7.72;5.25;;;;;22.00;100810.00;;;;10245063;28;20236;-86
2023/06/17 21:07:11;;;;;;;9.68;5.63;;;;;21.90;100812.00;;;;10252037;28;20206;-79
2023/06/17 21:12:14;;;;;;;6.85;5.78;;;;;21.90;100813.00;;;;10250143;28;20194;-79
2023/06/17 21:17:16;;;;;;;10.45;6.22;;;;;21.80;100816.00;;;;10224276;29;20597;-76
2023/06/17 21:22:18;;;;;;;14.13;8.18;;;;;21.70;100819.00;;;;10249392;28;20479;-79
2023/06/17 21:27:20;;;;;;;9.48;5.90;;;;;21.60;100819.00;;;;10232504;28;20198;-79
2023/06/17 21:32:22;;;;;;;8.70;5.80;;;;;21.40;100814.00;;;;10212848;28;20209;-79
2023/06/17 21:37:24;;;;;;;8.25;5.72;;;;;21.30;100810.00;;;;10247538;28;20218;-75
2023/06/17 21:42:28;;;;;;;9.48;6.15;;;;;21.20;100809.00;;;;10244460;28;20202;-77
2023/06/17 21:47:30;;;;;;;13.90;7.60;;;;;21.20;100803.00;;;;10242260;28;20276;-76
2023/06/17 21:52:32;;;;;;;10.95;7.00;;;;;21.10;100800.00;;;;10242514;28;20378;-84
2023/06/17 21:57:34;;;;;;;9.13;6.53;;;;;20.90;100791.00;;;;10241619;28;20218;-76
2023/06/17 22:02:36;;;;;;;12.52;6.43;;;;;20.80;100793.00;;;;10233771;28;20433;-75
2023/06/17 22:07:38;;;;;;;11.18;7.50;;;;;20.60;100800.00;;;;10229882;28;20198;-86
2023/06/17 22:12:40;;;;;;;15.10;7.22;;;;;20.60;100787.00;;;;10252370;28;20297;-75
2023/06/17 22:17:42;;;;;;;10.48;6.72;;;;;20.50;100790.00;;;;10245360;28;20221;-77
2023/06/17 22:22:45;;;;;;;14.50;7.43;;;;;20.40;100779.00;;;;10211142;29;20261;-77
2023/06/17 22:27:47;;;;;;;12.68;7.82;;;;;20.30;100793.00;;;;10241255;28;20202;-76
2023/06/17 22:32:49;;;;;;;15.93;7.93;;;;;20.10;100786.00;;;;10249160;28;20205;-77
2023/06/17 22:37:52;;;;;;;13.88;8.35;;;;;20.00;100788.00;;;;10237018;28;20221;-76
2023/06/17 22:42:54;;;;;;;12.13;7.65;;;;;19.90;100788.00;;;;10223450;28;20202;-79
2023/06/17 22:47:56;;;;;;;10.20;7.07;;;;;19.90;100784.00;;;;10217846;28;20740;-77
2023/06/17 22:52:58;;;;;;;11.30;8.00;;;;;20.00;100784.00;;;;10226427;28;20297;-86
2023/06/17 22:58:00;;;;;;;9.77;7.40;;;;;20.00;100787.00;;;;10227672;28;20218;-76
2023/06/17 23:03:02;;;;;;;10.32;8.45;;;;;19.90;100789.00;;;;10241753;28;20264;-78
2023/06/17 23:08:05;;;;;;;10.40;8.10;;;;;19.70;100791.00;;;;10216098;28;20210;-79
2023/06/17 23:13:06;;;;;;;14.82;8.45;;;;;19.70;100779.00;;;;10209257;28;20289;-77
2023/06/17 23:18:09;;;;;;;16.15;8.00;;;;;19.70;100779.00;;;;10210624;29;20647;-76
2023/06/17 23:23:11;;;;;;;13.52;8.02;;;;;19.70;100771.00;;;;10219054;28;20288;-78
2023/06/17 23:28:17;;;;;;;12.15;8.65;;;;;19.70;100773.00;;;;10245284;28;20205;-75
2023/06/17 23:33:19;;;;;;;12.25;8.48;;;;;19.70;100767.00;;;;10211700;29;20210;-77
2023/06/17 23:38:21;;;;;;;11.95;8.82;;;;;19.60;100767.00;;;;10190126;29;20634;-75
2023/06/17 23:43:24;;;;;;;11.27;8.48;;;;;19.60;100764.00;;;;10218998;28;20861;-76
2023/06/17 23:48:26;;;;;;;9.23;8.10;;;;;19.50;100766.00;;;;10244571;28;20194;-76
2023/06/17 23:53:29;;;;;;;9.43;8.45;;;;;19.50;100755.00;;;;10225418;28;20288;-75
2023/06/17 23:58:31;;;;;;;9.88;8.85;;;;;19.50;100767.00;;;;10240242;28;20677;-76
